createdAt,value
2022-12-03T00:00:21.280Z,0.55
2022-12-03T00:02:53.721Z,0.54
2022-12-03T00:05:25.425Z,0.57
2022-12-03T00:07:57.260Z,0.64
2022-12-03T00:10:28.970Z,0.68
2022-12-03T00:13:03.183Z,0.60
2022-12-03T00:15:35.017Z,0.62
2022-12-03T00:18:06.693Z,0.65
2022-12-03T00:20:38.291Z,0.65
2022-12-03T00:23:09.897Z,0.63
2022-12-03T00:25:41.574Z,0.64
2022-12-03T00:28:13.184Z,0.66
2022-12-03T00:30:44.840Z,0.63
2022-12-03T00:33:19.407Z,0.68
2022-12-03T00:35:51.131Z,0.64
2022-12-03T00:38:22.911Z,0.60
2022-12-03T00:40:54.696Z,0.67
2022-12-03T00:43:27.483Z,0.61
2022-12-03T00:46:01.191Z,0.58
2022-12-03T00:48:32.851Z,0.58
2022-12-03T00:51:08.426Z,0.60
2022-12-03T00:53:40.139Z,0.58
2022-12-03T00:56:14.543Z,0.55
2022-12-03T00:58:46.221Z,0.62
2022-12-03T01:01:17.995Z,0.64
2022-12-03T01:03:51.841Z,0.66
2022-12-03T01:06:23.518Z,0.61
2022-12-03T01:08:57.504Z,0.67
2022-12-03T01:11:41.705Z,0.65
2022-12-03T01:14:17.700Z,0.64
2022-12-03T01:16:52.271Z,0.65
2022-12-03T01:19:25.229Z,0.64
2022-12-03T01:21:57.235Z,0.67
2022-12-03T01:24:29.823Z,0.67
2022-12-03T01:27:01.811Z,0.74
2022-12-03T01:29:35.784Z,0.77
2022-12-03T01:32:20.636Z,0.69
2022-12-03T01:34:54.441Z,0.71
2022-12-03T01:37:26.910Z,0.76
2022-12-03T01:39:59.748Z,0.77
2022-12-03T01:42:39.512Z,0.72
2022-12-03T01:45:21.745Z,0.65
2022-12-03T01:47:54.133Z,0.66
2022-12-03T01:50:33.778Z,0.69
2022-12-03T01:53:14.728Z,0.67
2022-12-03T01:55:51.202Z,0.72
2022-12-03T01:58:27.082Z,0.73
2022-12-03T02:01:04.438Z,0.73
2022-12-03T02:03:37.615Z,0.74
2022-12-03T02:06:16.772Z,0.75
2022-12-03T02:08:53.321Z,0.79
2022-12-03T02:11:35.560Z,0.81
2022-12-03T02:14:27.055Z,0.82
2022-12-03T02:17:04.619Z,0.80
2022-12-03T02:19:36.231Z,0.77
2022-12-03T02:22:48.388Z,0.74
2022-12-03T02:25:27.542Z,0.69
2022-12-03T02:28:04.037Z,0.65
2022-12-03T02:30:36.341Z,0.66
2022-12-03T02:33:13.041Z,0.58
2022-12-03T02:35:45.324Z,0.58
2022-12-03T02:38:18.717Z,0.58
2022-12-03T02:40:54.753Z,0.56
2022-12-03T02:43:29.283Z,0.55
2022-12-03T02:46:04.911Z,0.56
2022-12-03T02:48:47.272Z,0.49
2022-12-03T02:51:21.994Z,0.46
2022-12-03T02:53:55.601Z,0.54
2022-12-03T02:56:31.910Z,0.56
2022-12-03T02:59:05.662Z,0.58
2022-12-03T03:01:37.715Z,0.57
2022-12-03T03:04:13.501Z,0.59
2022-12-03T03:06:49.519Z,0.61
2022-12-03T03:09:24.613Z,0.59
2022-12-03T03:11:56.247Z,0.57
2022-12-03T03:14:30.211Z,0.55
2022-12-03T03:17:07.646Z,0.52
2022-12-03T03:19:42.286Z,0.55
2022-12-03T03:22:13.927Z,0.50
2022-12-03T03:24:45.649Z,0.48
2022-12-03T03:27:17.256Z,0.47
2022-12-03T03:29:48.847Z,0.48
2022-12-03T03:32:24.225Z,0.51
2022-12-03T03:34:59.622Z,0.55
2022-12-03T03:37:33.949Z,0.57
2022-12-03T03:40:08.042Z,0.58
2022-12-03T03:42:40.051Z,0.60
2022-12-03T03:45:11.793Z,0.60
2022-12-03T03:47:43.809Z,0.64
2022-12-03T03:50:23.497Z,0.67
2022-12-03T03:52:57.806Z,0.64
2022-12-03T03:55:31.062Z,0.67
2022-12-03T03:58:05.741Z,0.72
2022-12-03T04:00:45.726Z,0.66
2022-12-03T04:03:17.393Z,0.65
2022-12-03T04:05:51.078Z,0.70
2022-12-03T04:08:22.833Z,0.65
2022-12-03T04:11:12.843Z,0.67
2022-12-03T04:13:44.464Z,0.71
2022-12-03T04:16:16.047Z,0.71
2022-12-03T04:18:47.793Z,0.73
2022-12-03T04:21:40.762Z,0.72
2022-12-03T04:24:12.467Z,0.68
2022-12-03T04:27:06.156Z,0.70
2022-12-03T04:29:37.788Z,0.71
2022-12-03T04:32:28.249Z,0.67
2022-12-03T04:35:18.621Z,0.72
2022-12-03T04:37:53.409Z,0.74
2022-12-03T04:40:43.678Z,0.79
2022-12-03T04:43:16.417Z,0.76
2022-12-03T04:45:48.012Z,0.80
2022-12-03T04:48:19.607Z,0.76
2022-12-03T04:50:51.365Z,0.73
2022-12-03T04:53:22.971Z,0.77
2022-12-03T04:55:54.628Z,0.80
2022-12-03T04:58:26.186Z,0.76
2022-12-03T05:00:58.477Z,0.79
2022-12-03T05:03:30.069Z,0.78
2022-12-03T05:06:02.997Z,0.80
2022-12-03T05:08:35.644Z,0.86
2022-12-03T05:11:13.362Z,0.86
2022-12-03T05:13:49.328Z,0.88
2022-12-03T05:16:23.818Z,0.89
2022-12-03T05:18:55.679Z,0.87
2022-12-03T05:21:29.571Z,0.88
2022-12-03T05:24:02.394Z,0.93
2022-12-03T05:26:34.191Z,0.96
2022-12-03T05:29:06.083Z,0.96
2022-12-03T05:31:40.754Z,0.93
2022-12-03T05:34:12.355Z,0.96
2022-12-03T05:36:44.060Z,0.96
2022-12-03T05:39:15.631Z,1.00
2022-12-03T05:42:05.885Z,0.97
2022-12-03T05:44:37.415Z,0.95
2022-12-03T05:47:12.141Z,0.96
2022-12-03T05:49:43.787Z,1.01
2022-12-03T05:52:15.760Z,0.98
2022-12-03T05:54:53.669Z,1.00
2022-12-03T05:57:25.569Z,1.04
2022-12-03T06:00:39.059Z,0.99
2022-12-03T06:03:13.775Z,0.98
2022-12-03T06:05:45.704Z,1.01
2022-12-03T06:08:17.321Z,0.98
2022-12-03T06:10:49.054Z,1.05
2022-12-03T06:13:20.726Z,1.07
2022-12-03T06:15:52.491Z,1.06
2022-12-03T06:18:24.522Z,1.09
2022-12-03T06:20:56.158Z,1.08
2022-12-03T06:23:27.800Z,1.09
2022-12-03T06:25:59.387Z,1.12
2022-12-03T06:28:31.010Z,1.18
2022-12-03T06:31:02.845Z,1.14
2022-12-03T06:33:34.466Z,1.15
2022-12-03T06:36:07.167Z,1.14
2022-12-03T06:38:44.553Z,1.10
2022-12-03T06:41:16.459Z,1.07
2022-12-03T06:43:48.133Z,1.06
2022-12-03T06:46:19.960Z,1.05
2022-12-03T06:48:51.671Z,1.04
2022-12-03T06:51:23.287Z,1.06
2022-12-03T06:53:54.983Z,1.13
2022-12-03T06:56:36.759Z,1.08
2022-12-03T06:59:11.092Z,1.14
2022-12-03T07:01:42.847Z,1.21
2022-12-03T07:04:14.552Z,1.21
2022-12-03T07:06:46.088Z,1.23
2022-12-03T07:09:18.774Z,1.26
2022-12-03T07:11:50.368Z,1.26
2022-12-03T07:14:22.077Z,1.29
2022-12-03T07:16:53.943Z,1.31
2022-12-03T07:19:32.087Z,1.33
2022-12-03T07:22:04.354Z,1.37
2022-12-03T07:24:40.115Z,1.40
2022-12-03T07:27:11.816Z,1.39
2022-12-03T07:29:43.434Z,1.43
2022-12-03T07:32:14.984Z,1.46
2022-12-03T07:34:46.657Z,1.42
2022-12-03T07:37:22.862Z,1.29
2022-12-03T07:39:57.264Z,1.32
2022-12-03T07:42:31.283Z,1.30
2022-12-03T07:45:03.677Z,1.24
2022-12-03T07:47:35.255Z,1.26
2022-12-03T07:50:07.508Z,1.34
2022-12-03T07:52:39.117Z,1.41
2022-12-03T07:55:14.154Z,1.39
2022-12-03T07:57:46.084Z,1.40
2022-12-03T08:00:20.025Z,1.40
2022-12-03T08:02:52.158Z,1.44
2022-12-03T08:05:26.982Z,1.41
2022-12-03T08:07:59.845Z,1.38
2022-12-03T08:10:31.498Z,1.39
2022-12-03T08:13:10.617Z,1.36
2022-12-03T08:15:46.942Z,1.42
2022-12-03T08:18:21.466Z,1.43
2022-12-03T08:20:55.877Z,1.50
2022-12-03T08:23:28.562Z,1.54
2022-12-03T08:26:02.318Z,1.57
2022-12-03T08:28:34.061Z,1.65
2022-12-03T08:31:21.055Z,1.68
2022-12-03T08:34:00.724Z,1.60
2022-12-03T08:36:36.502Z,1.62
2022-12-03T08:39:48.322Z,1.55
2022-12-03T08:42:42.360Z,1.53
2022-12-03T08:45:30.350Z,1.55
2022-12-03T08:48:05.628Z,1.55
2022-12-03T08:50:41.175Z,1.61
2022-12-03T08:53:32.699Z,1.60
2022-12-03T08:56:06.278Z,1.62
2022-12-03T08:58:44.145Z,1.65
2022-12-03T09:01:30.260Z,1.70
2022-12-03T09:04:23.213Z,1.75
2022-12-03T09:06:55.805Z,1.82
2022-12-03T09:09:34.649Z,1.84
2022-12-03T09:12:09.613Z,1.86
2022-12-03T09:14:41.279Z,1.89
2022-12-03T09:17:12.908Z,1.88
2022-12-03T09:19:46.277Z,1.88
2022-12-03T09:22:18.585Z,1.85
2022-12-03T09:24:50.249Z,2.10
2022-12-03T09:27:25.713Z,2.08
2022-12-03T09:29:57.545Z,2.04
2022-12-03T09:32:29.303Z,2.01
2022-12-03T09:35:01.283Z,2.08
2022-12-03T09:37:32.892Z,2.12
2022-12-03T09:40:06.179Z,2.08
2022-12-03T09:42:39.406Z,2.09
2022-12-03T09:45:14.748Z,2.08
2022-12-03T09:47:50.693Z,2.08
2022-12-03T09:50:25.455Z,2.07
2022-12-03T09:53:02.029Z,2.04
2022-12-03T09:55:33.972Z,2.01
2022-12-03T09:58:12.576Z,2.03
2022-12-03T10:04:00.591Z,2.03
2022-12-03T10:06:32.266Z,2.00
2022-12-03T10:09:06.909Z,2.00
2022-12-03T10:11:40.590Z,2.06
2022-12-03T10:14:16.997Z,2.00
2022-12-03T10:16:48.940Z,1.91
2022-12-03T10:19:30.135Z,1.92
2022-12-03T10:22:01.964Z,1.96
2022-12-03T10:24:38.793Z,1.97
2022-12-03T10:27:32.782Z,2.12
2022-12-03T10:30:14.657Z,2.17
2022-12-03T10:32:49.340Z,2.18
2022-12-03T10:35:46.413Z,2.22
2022-12-03T10:38:17.940Z,2.23
2022-12-03T10:40:50.455Z,2.18
2022-12-03T10:43:30.700Z,2.18
2022-12-03T10:46:04.679Z,2.19
2022-12-03T10:48:39.723Z,2.21
2022-12-03T10:51:17.245Z,2.27
2022-12-03T10:53:50.628Z,2.33
2022-12-03T10:56:25.626Z,2.23
2022-12-03T10:58:57.575Z,2.16
2022-12-03T11:01:29.347Z,2.16
2022-12-03T11:04:04.426Z,2.20
2022-12-03T11:06:36.537Z,2.24
2022-12-03T11:09:17.525Z,2.32
2022-12-03T11:11:49.767Z,2.26
2022-12-03T11:15:05.187Z,2.23
2022-12-03T11:17:51.280Z,2.19
2022-12-03T11:20:23.263Z,2.23
2022-12-03T11:22:59.306Z,2.18
2022-12-03T11:25:50.400Z,2.11
2022-12-03T11:28:21.943Z,2.12
2022-12-03T11:30:58.567Z,2.11
2022-12-03T11:33:33.236Z,2.04
2022-12-03T11:36:13.952Z,2.11
2022-12-03T11:38:56.043Z,2.19
2022-12-03T11:41:33.369Z,2.22
2022-12-03T11:44:29.350Z,2.19
2022-12-03T11:47:12.488Z,2.23
2022-12-03T11:49:49.535Z,2.27
2022-12-03T11:52:39.304Z,2.17
2022-12-03T11:55:26.423Z,2.10
2022-12-03T11:58:04.903Z,2.08
2022-12-03T12:00:36.463Z,2.08
2022-12-03T12:03:26.606Z,2.02
2022-12-03T12:06:06.089Z,1.99
2022-12-03T12:08:42.227Z,1.97
2022-12-03T12:11:26.416Z,1.98
2022-12-03T12:14:12.126Z,2.03
2022-12-03T12:16:52.550Z,2.07
2022-12-03T12:19:30.066Z,2.11
2022-12-03T12:22:31.885Z,2.15
2022-12-03T12:25:24.538Z,2.16
2022-12-03T12:28:00.208Z,2.12
2022-12-03T12:30:32.023Z,2.10
2022-12-03T12:33:22.993Z,2.09
2022-12-03T12:35:54.833Z,2.09
2022-12-03T12:38:28.193Z,2.07
2022-12-03T12:41:06.713Z,2.12
2022-12-03T12:43:39.557Z,2.11
2022-12-03T12:46:46.083Z,2.17
2022-12-03T12:49:11.451Z,2.10
2022-12-03T12:51:50.232Z,2.11
2022-12-03T12:54:22.155Z,2.09
2022-12-03T12:56:53.809Z,2.06
2022-12-03T12:59:25.980Z,2.04
2022-12-03T13:02:01.688Z,2.09
2022-12-03T13:04:39.940Z,2.13
2022-12-03T13:07:11.533Z,2.16
2022-12-03T13:09:43.120Z,2.18
2022-12-03T13:12:24.320Z,2.19
2022-12-03T13:15:00.362Z,2.26
2022-12-03T13:17:34.080Z,2.32
2022-12-03T13:20:17.240Z,2.30
2022-12-03T13:22:49.173Z,2.28
2022-12-03T13:28:30.764Z,2.33
2022-12-03T13:31:21.283Z,2.35
2022-12-03T13:33:56.936Z,2.28
2022-12-03T13:36:55.373Z,2.29
2022-12-03T13:39:36.465Z,2.33
2022-12-03T13:42:40.640Z,2.36
2022-12-03T13:45:15.092Z,2.38
2022-12-03T13:47:55.687Z,2.42
2022-12-03T13:50:43.968Z,2.43
2022-12-03T13:53:22.569Z,2.41
2022-12-03T13:56:30.467Z,2.42
2022-12-03T13:59:03.987Z,2.34
2022-12-03T14:01:38.616Z,2.26
2022-12-03T14:04:11.080Z,2.25
2022-12-03T14:06:42.766Z,2.24
2022-12-03T14:09:14.536Z,2.28
2022-12-03T14:12:05.001Z,2.24
2022-12-03T14:14:36.642Z,2.29
2022-12-03T14:17:10.616Z,2.21
2022-12-03T14:19:42.292Z,2.20
2022-12-03T14:22:14.803Z,2.24
2022-12-03T14:24:46.556Z,2.32
2022-12-03T14:27:18.962Z,2.33
2022-12-03T14:29:53.054Z,2.33
2022-12-03T14:32:28.450Z,2.35
2022-12-03T14:35:01.177Z,2.38
2022-12-03T14:37:36.009Z,2.39
2022-12-03T14:40:09.113Z,2.43
2022-12-03T14:42:40.818Z,2.47
2022-12-03T14:45:12.380Z,2.51
2022-12-03T14:47:44.008Z,2.53
2022-12-03T14:50:15.665Z,2.53
2022-12-03T14:52:47.294Z,2.47
2022-12-03T14:55:19.069Z,2.48
2022-12-03T14:57:51.067Z,2.50
2022-12-03T15:00:22.792Z,2.45
2022-12-03T15:02:54.890Z,2.35
2022-12-03T15:05:28.876Z,2.35
2022-12-03T15:08:00.933Z,2.31
2022-12-03T15:10:32.579Z,2.30
2022-12-03T15:13:07.762Z,2.27
2022-12-03T15:15:39.580Z,2.30
2022-12-03T15:18:11.509Z,2.36
2022-12-03T15:20:43.159Z,2.27
2022-12-03T15:23:14.911Z,2.27
2022-12-03T15:25:47.625Z,2.27
2022-12-03T15:28:23.154Z,2.31
2022-12-03T15:30:55.964Z,2.34
2022-12-03T15:33:28.680Z,2.33
2022-12-03T15:36:00.337Z,2.34
2022-12-03T15:38:32.033Z,2.35
2022-12-03T15:41:23.690Z,2.30
2022-12-03T15:43:58.432Z,2.33
2022-12-03T15:46:31.770Z,2.39
2022-12-03T15:49:03.489Z,2.30
2022-12-03T15:51:35.121Z,2.34
2022-12-03T15:54:06.839Z,2.37
2022-12-03T15:56:43.617Z,2.37
2022-12-03T15:59:16.596Z,2.41
2022-12-03T16:01:48.284Z,2.46
2022-12-03T16:04:22.992Z,2.46
2022-12-03T16:06:57.668Z,2.47
2022-12-03T16:09:31.591Z,2.51
2022-12-03T16:12:03.362Z,2.57
2022-12-03T16:14:34.986Z,2.48
2022-12-03T16:17:06.614Z,2.48
2022-12-03T16:19:38.221Z,2.50
2022-12-03T16:22:12.777Z,2.51
2022-12-03T16:24:44.529Z,2.48
2022-12-03T16:27:16.433Z,2.46
2022-12-03T16:29:48.212Z,2.46
2022-12-03T16:32:20.139Z,2.47
2022-12-03T16:34:54.831Z,2.46
2022-12-03T16:37:26.626Z,2.41
2022-12-03T16:39:58.634Z,2.45
2022-12-03T16:42:30.320Z,2.47
2022-12-03T16:45:04.758Z,2.45
2022-12-03T16:47:36.840Z,2.44
2022-12-03T16:50:14.162Z,2.45
2022-12-03T16:52:49.805Z,2.46
2022-12-03T16:55:21.540Z,2.42
2022-12-03T16:57:53.365Z,2.42
2022-12-03T17:00:27.553Z,2.44
2022-12-03T17:02:59.241Z,2.40
2022-12-03T17:05:31.046Z,2.39
2022-12-03T17:08:02.734Z,2.44
2022-12-03T17:10:34.540Z,2.43
2022-12-03T17:13:10.561Z,2.49
2022-12-03T17:15:42.573Z,2.51
2022-12-03T17:18:14.493Z,2.49
2022-12-03T17:20:46.196Z,2.48
2022-12-03T17:23:18.478Z,2.45
2022-12-03T17:25:53.061Z,2.48
2022-12-03T17:28:24.879Z,2.42
2022-12-03T17:30:56.587Z,2.41
2022-12-03T17:33:30.073Z,2.41
2022-12-03T17:36:02.462Z,2.44
2022-12-03T17:38:39.117Z,2.42
2022-12-03T17:41:16.085Z,2.46
2022-12-03T17:43:47.671Z,2.44
2022-12-03T17:46:19.852Z,2.46
2022-12-03T17:48:51.443Z,2.37
2022-12-03T17:51:25.774Z,2.38
2022-12-03T17:53:57.457Z,2.35
2022-12-03T17:56:29.280Z,2.39
2022-12-03T17:59:01.011Z,2.47
2022-12-03T18:01:33.842Z,2.52
2022-12-03T18:04:06.035Z,2.48
2022-12-03T18:06:41.420Z,2.47
2022-12-03T18:09:13.287Z,2.48
2022-12-03T18:11:45.100Z,2.44
2022-12-03T18:14:19.257Z,2.42
2022-12-03T18:16:50.997Z,2.45
2022-12-03T18:19:22.582Z,2.43
2022-12-03T18:21:57.381Z,2.46
2022-12-03T18:24:28.890Z,2.48
2022-12-03T18:27:00.676Z,2.44
2022-12-03T18:29:32.299Z,2.46
2022-12-03T18:32:27.711Z,2.53
2022-12-03T18:35:01.060Z,2.46
2022-12-03T18:37:35.895Z,2.45
2022-12-03T18:40:13.526Z,2.46
2022-12-03T18:42:47.077Z,2.52
2022-12-03T18:45:21.088Z,2.55
2022-12-03T18:47:52.808Z,2.60
2022-12-03T18:50:24.510Z,2.63
2022-12-03T18:52:56.114Z,2.62
2022-12-03T18:55:31.289Z,2.67
2022-12-03T18:58:03.045Z,2.66
2022-12-03T19:00:38.160Z,2.64
2022-12-03T19:03:10.232Z,2.62
2022-12-03T19:05:42.190Z,2.63
2022-12-03T19:08:19.258Z,2.64
2022-12-03T19:11:01.318Z,2.62
2022-12-03T19:13:33.252Z,2.64
2022-12-03T19:16:06.597Z,2.61
2022-12-03T19:18:39.346Z,2.63
2022-12-03T19:21:16.090Z,2.65
2022-12-03T19:24:22.108Z,2.70
2022-12-03T19:26:39.598Z,2.75
2022-12-03T19:29:14.241Z,2.68
2022-12-03T19:31:45.943Z,2.68
2022-12-03T19:34:17.767Z,2.72
2022-12-03T19:36:49.449Z,2.72
2022-12-03T19:39:24.387Z,2.69
2022-12-03T19:41:56.131Z,2.71
2022-12-03T19:44:27.740Z,2.72
2022-12-03T19:46:59.490Z,2.67
2022-12-03T19:49:31.257Z,2.61
2022-12-03T19:52:03.049Z,2.63
2022-12-03T19:54:37.459Z,2.61
2022-12-03T19:57:22.792Z,2.65
2022-12-03T19:59:55.380Z,2.61
2022-12-03T20:02:30.387Z,2.64
2022-12-03T20:05:02.118Z,2.59
2022-12-03T20:07:33.766Z,2.62
2022-12-03T20:10:08.368Z,2.63
2022-12-03T20:12:40.604Z,2.60
2022-12-03T20:15:13.713Z,2.63
2022-12-03T20:17:45.419Z,2.65
2022-12-03T20:20:19.121Z,2.66
2022-12-03T20:22:51.856Z,2.67
2022-12-03T20:25:25.762Z,2.66
2022-12-03T20:27:57.405Z,2.69
2022-12-03T20:30:29.148Z,2.72
2022-12-03T20:33:00.774Z,2.75
2022-12-03T20:35:33.375Z,2.76
2022-12-03T20:38:07.650Z,2.78
2022-12-03T20:40:39.329Z,2.79
2022-12-03T20:43:10.943Z,2.79
2022-12-03T20:45:43.704Z,2.79
2022-12-03T20:48:15.488Z,2.84
2022-12-03T20:50:47.108Z,2.85
2022-12-03T20:53:24.949Z,2.82
2022-12-03T20:56:01.568Z,2.85
2022-12-03T20:58:34.698Z,2.84
2022-12-03T21:01:15.178Z,2.83
2022-12-03T21:03:48.445Z,2.86
2022-12-03T21:06:21.862Z,2.81
2022-12-03T21:08:54.694Z,2.81
2022-12-03T21:11:32.092Z,2.82
2022-12-03T21:14:04.216Z,2.84
2022-12-03T21:17:07.279Z,2.87
2022-12-03T21:19:31.243Z,2.82
2022-12-03T21:22:07.006Z,2.83
2022-12-03T21:24:38.836Z,2.84
2022-12-03T21:27:10.459Z,2.86
2022-12-03T21:29:42.044Z,2.82
2022-12-03T21:32:13.800Z,2.80
2022-12-03T21:34:48.383Z,2.79
2022-12-03T21:37:23.081Z,2.83
2022-12-03T21:39:55.859Z,2.84
2022-12-03T21:42:36.146Z,2.85
2022-12-03T21:45:13.345Z,2.88
2022-12-03T21:47:48.509Z,2.90
2022-12-03T21:50:20.439Z,2.88
2022-12-03T21:52:52.840Z,2.90
2022-12-03T21:55:27.287Z,2.99
2022-12-03T21:57:58.952Z,2.93
2022-12-03T22:00:30.585Z,2.97
2022-12-03T22:03:02.404Z,3.01
2022-12-03T22:05:34.114Z,3.06
2022-12-03T22:08:08.009Z,3.08
2022-12-03T22:10:42.863Z,3.12
2022-12-03T22:13:14.481Z,3.14
2022-12-03T22:15:46.220Z,3.15
2022-12-03T22:18:17.873Z,3.16
2022-12-03T22:20:49.490Z,3.19
2022-12-03T22:23:22.152Z,3.25
2022-12-03T22:26:01.111Z,3.25
2022-12-03T22:28:33.954Z,3.28
2022-12-03T22:31:16.388Z,3.32
2022-12-03T22:33:49.742Z,3.34
2022-12-03T22:36:22.076Z,3.32
2022-12-03T22:38:53.758Z,3.30
2022-12-03T22:41:25.325Z,3.35
2022-12-03T22:43:56.921Z,3.39
2022-12-03T22:46:28.524Z,3.41
2022-12-03T22:49:06.470Z,3.44
2022-12-03T22:51:39.300Z,3.48
2022-12-03T22:54:10.983Z,3.50
2022-12-03T22:56:42.675Z,3.47
2022-12-03T22:59:14.579Z,3.45
2022-12-03T23:01:46.297Z,3.47
2022-12-03T23:04:18.025Z,3.49
2022-12-03T23:06:49.685Z,3.45
2022-12-03T23:09:21.268Z,3.43
2022-12-03T23:11:52.828Z,3.40
2022-12-03T23:14:29.005Z,3.41
2022-12-03T23:17:00.665Z,3.37
2022-12-03T23:19:32.705Z,3.37
2022-12-03T23:22:04.259Z,3.39
2022-12-03T23:24:36.632Z,3.42
2022-12-03T23:27:08.237Z,3.47
2022-12-03T23:29:42.591Z,3.40
2022-12-03T23:32:17.044Z,3.41
2022-12-03T23:34:48.780Z,3.42
2022-12-03T23:37:23.649Z,3.41
2022-12-03T23:39:55.414Z,3.38
2022-12-03T23:42:27.157Z,3.39
2022-12-03T23:44:58.792Z,3.43
2022-12-03T23:47:30.392Z,3.43
2022-12-03T23:50:02.834Z,3.43
2022-12-03T23:52:37.612Z,3.44
2022-12-03T23:55:10.600Z,3.48
2022-12-03T23:57:42.196Z,3.50
